Time;durP1;ratioP1;P1;durP2;ratioP2;P2;SDS_P1;SDS_P2;PMS_P1;PMS_P2;Temp;Humidity;BMP_temperature;BMP_pressure;BME280_temperature;BME280_humidity;BME280_pressure;Samples;Min_cycle;Max_cycle;Signal;HPM_P1;HPM_P2
2023/05/18 00:01:59;;;;;;;23.60;18.10;;;;;;;11.90;56.54;101042.47;4970926;28;98432;-87
2023/05/18 00:04:25;;;;;;;25.98;18.27;;;;;;;11.68;56.65;101021.13;4975519;28;101100;-88
2023/05/18 00:06:57;;;;;;;28.67;17.85;;;;;;;11.94;55.90;101052.88;4958748;28;97141;-87
2023/05/18 00:09:24;;;;;;;21.67;17.92;;;;;;;11.79;56.25;101029.59;4943400;28;96869;-87
2023/05/18 00:11:50;;;;;;;22.45;16.85;;;;;;;11.98;56.08;101062.41;4958615;28;100052;-87
2023/05/18 00:14:16;;;;;;;20.50;16.60;;;;;;;11.70;55.74;101061.41;4942165;28;99877;-88
2023/05/18 00:16:42;;;;;;;22.80;16.92;;;;;;;11.46;56.45;101066.41;4958634;28;97042;-87
2023/05/18 00:19:07;;;;;;;20.63;18.50;;;;;;;11.60;56.11;101052.88;4958669;28;96938;-87
2023/05/18 00:21:34;;;;;;;25.00;18.63;;;;;;;11.35;56.37;101015.03;4955585;28;101550;-93
2023/05/18 00:24:00;;;;;;;19.95;17.85;;;;;;;11.47;56.06;101052.34;4937817;28;101096;-87
2023/05/18 00:26:25;;;;;;;22.60;17.48;;;;;;;11.11;56.83;101077.78;4951928;28;96941;-87
2023/05/18 00:28:52;;;;;;;23.52;18.08;;;;;;;11.26;56.15;101074.81;4939754;28;97191;-87
2023/05/18 00:31:17;;;;;;;32.28;20.27;;;;;;;11.55;55.90;101073.19;4943155;28;101576;-87
2023/05/18 00:33:45;;;;;;;22.80;16.45;;;;;;;11.33;55.59;101075.50;4965052;28;97540;-86
2023/05/18 00:36:11;;;;;;;26.75;18.70;;;;;;;11.10;56.77;101081.31;4952160;28;97134;-89
2023/05/18 00:38:36;;;;;;;27.85;16.65;;;;;;;11.17;56.09;101072.41;4948675;28;97122;-87
2023/05/18 00:41:02;;;;;;;28.15;16.60;;;;;;;11.14;55.30;101075.09;4956018;28;101633;-86
2023/05/18 00:43:27;;;;;;;28.00;17.95;;;;;;;11.34;55.86;101077.22;4941670;28;101339;-87
2023/05/18 00:45:53;;;;;;;28.77;17.65;;;;;;;11.22;56.06;101088.91;4957645;28;96840;-87
2023/05/18 00:48:18;;;;;;;24.88;17.25;;;;;;;11.19;56.26;101103.88;4958354;28;96985;-87
2023/05/18 00:50:45;;;;;;;20.67;17.00;;;;;;;10.72;56.27;101058.59;4940977;28;101973;-87
2023/05/18 00:53:11;;;;;;;21.73;18.42;;;;;;;11.14;55.99;101101.38;4959042;28;102187;-88
2023/05/18 00:55:37;;;;;;;26.00;17.67;;;;;;;11.28;56.28;101090.50;4942177;28;96760;-88
2023/05/18 00:58:04;;;;;;;19.90;17.33;;;;;;;11.13;56.25;101098.78;4956643;28;96988;-87
2023/05/18 01:00:30;;;;;;;21.08;17.48;;;;;;;11.23;55.93;101113.44;4959487;28;98591;-87
2023/05/18 01:02:55;;;;;;;25.63;17.52;;;;;;;10.94;56.88;101090.44;4974379;28;98484;-87
2023/05/18 01:05:21;;;;;;;19.58;17.42;;;;;;;11.28;56.15;101107.16;4939161;28;97269;-88
2023/05/18 01:07:47;;;;;;;18.52;16.50;;;;;;;10.82;56.84;101084.63;4939289;28;96730;-87
2023/05/18 01:10:15;;;;;;;21.17;17.88;;;;;;;11.37;56.11;101118.34;4943122;28;100307;-87
2023/05/18 01:12:55;;;;;;;22.20;17.67;;;;;;;11.48;55.25;101116.31;4940234;28;101521;-87
2023/05/18 01:15:36;;;;;;;26.15;17.83;;;;;;;11.27;56.14;101112.44;4942538;28;97270;-88
2023/05/18 01:18:20;;;;;;;23.70;16.98;;;;;;;11.34;55.86;101124.53;4958661;28;97454;-86
2023/05/18 01:20:48;;;;;;;29.73;16.27;;;;;;;11.05;55.97;101076.19;4972437;28;97457;-87
2023/05/18 01:23:28;;;;;;;19.13;16.88;;;;;;;10.95;56.52;101110.59;4942461;28;100807;-86
2023/05/18 01:25:53;;;;;;;19.10;16.63;;;;;;;10.91;56.09;101136.06;4975227;28;97026;-87
2023/05/18 01:28:25;;;;;;;21.45;18.05;;;;;;;10.65;56.98;101128.75;4975131;28;96833;-87
2023/05/18 01:30:52;;;;;;;22.83;16.38;;;;;;;10.99;56.44;101139.38;4958208;28;101708;-87
2023/05/18 01:33:18;;;;;;;19.67;16.52;;;;;;;10.93;56.75;101130.75;4958158;28;101383;-87
2023/05/18 01:35:49;;;;;;;25.33;16.90;;;;;;;11.23;55.80;101142.34;4958379;28;96757;-87
2023/05/18 01:38:19;;;;;;;21.02;16.65;;;;;;;10.94;56.58;101135.09;4944121;28;97164;-88
2023/05/18 01:41:12;;;;;;;19.83;17.05;;;;;;;11.17;55.79;101138.09;4961121;28;100734;-87
2023/05/18 01:43:46;;;;;;;22.25;16.23;;;;;;;11.27;55.61;101146.63;4959706;28;100929;-87
2023/05/18 01:46:16;;;;;;;20.45;16.85;;;;;;;11.15;55.42;101145.16;4960880;28;96725;-87
2023/05/18 01:48:45;;;;;;;22.58;16.80;;;;;;;10.95;55.63;101131.59;4978090;28;97120;-89
2023/05/18 01:51:13;;;;;;;25.52;16.73;;;;;;;10.87;55.95;101123.88;4936832;28;101462;-87
2023/05/18 01:53:44;;;;;;;25.08;15.35;;;;;;;11.10;55.89;101141.75;4955657;28;100991;-92
2023/05/18 01:56:10;;;;;;;19.70;17.13;;;;;;;11.17;55.33;101145.09;4967049;28;97539;-88
2023/05/18 01:58:36;;;;;;;18.33;16.40;;;;;;;11.16;55.03;101132.88;4962021;28;97039;-88
2023/05/18 02:01:03;;;;;;;18.25;16.10;;;;;;;11.21;55.34;101144.13;4953877;28;100881;-87
2023/05/18 02:03:31;;;;;;;18.27;16.48;;;;;;;11.30;55.00;101154.44;4942209;28;101509;-87
2023/05/18 02:05:56;;;;;;;19.63;15.05;;;;;;;11.19;55.50;101148.56;4961420;28;97148;-87
2023/05/18 02:08:22;;;;;;;22.35;16.48;;;;;;;11.33;55.14;101162.25;4945277;28;97038;-87
2023/05/18 02:10:47;;;;;;;18.20;16.02;;;;;;;11.25;54.66;101158.94;4943520;28;100322;-87
2023/05/18 02:13:13;;;;;;;18.80;16.90;;;;;;;11.25;55.01;101149.28;4960660;28;101559;-87
2023/05/18 02:15:38;;;;;;;21.08;16.00;;;;;;;11.30;54.78;101163.16;4954006;28;97437;-87
2023/05/18 02:18:04;;;;;;;20.58;16.40;;;;;;;11.33;55.30;101162.25;4942988;28;97018;-87
2023/05/18 02:20:32;;;;;;;18.27;16.40;;;;;;;11.29;54.97;101153.56;4945651;28;101190;-88
2023/05/18 02:22:58;;;;;;;23.38;17.20;;;;;;;11.32;54.84;101168.41;4962482;28;101324;-87
2023/05/18 02:25:25;;;;;;;18.92;16.88;;;;;;;11.36;55.31;101162.16;4985238;28;96790;-87
2023/05/18 02:27:51;;;;;;;21.67;15.80;;;;;;;11.15;54.78;101145.16;4966910;28;97192;-86
2023/05/18 02:30:17;;;;;;;21.23;16.38;;;;;;;11.12;55.09;101139.09;4960710;28;101550;-87
2023/05/18 02:32:45;;;;;;;18.52;15.82;;;;;;;11.25;55.00;101169.44;4941362;28;100588;-87
2023/05/18 02:35:11;;;;;;;18.13;16.05;;;;;;;11.28;54.47;101167.59;4938290;28;97092;-90
2023/05/18 02:37:38;;;;;;;17.55;14.50;;;;;;;11.19;54.96;101159.06;4955031;28;96763;-87
2023/05/18 02:40:11;;;;;;;18.10;16.30;;;;;;;11.24;54.94;101168.56;4968280;28;101825;-87
2023/05/18 02:42:38;;;;;;;28.88;16.75;;;;;;;11.22;54.65;101167.75;4941330;28;101744;-89
2023/05/18 02:45:04;;;;;;;19.17;16.08;;;;;;;11.16;54.67;101156.50;4960546;28;96707;-86
2023/05/18 02:47:30;;;;;;;21.70;15.20;;;;;;;11.25;54.37;101175.56;4959435;28;96993;-86
2023/05/18 02:49:56;;;;;;;17.55;15.07;;;;;;;11.14;54.48;101151.31;4959596;28;100568;-87
2023/05/18 02:52:21;;;;;;;21.13;17.00;;;;;;;11.25;54.29;101177.31;4957511;28;101479;-87
2023/05/18 02:54:47;;;;;;;23.33;16.13;;;;;;;11.21;54.76;101170.41;4938750;28;96704;-87
2023/05/18 02:57:18;;;;;;;18.63;15.55;;;;;;;11.20;54.56;101173.94;4961310;28;96874;-86
2023/05/18 02:59:57;;;;;;;23.15;16.92;;;;;;;10.91;54.97;101132.56;4946753;28;99739;-87
2023/05/18 03:02:23;;;;;;;17.08;15.63;;;;;;;11.22;54.79;101180.03;4968305;28;101096;-87
2023/05/18 03:04:56;;;;;;;24.13;17.52;;;;;;;11.22;54.96;101188.75;4960808;28;96927;-87
2023/05/18 03:07:26;;;;;;;24.15;17.60;;;;;;;11.03;55.29;101153.31;4954871;28;97122;-87
2023/05/18 03:09:52;;;;;;;18.88;16.33;;;;;;;11.12;55.43;101175.91;4936529;28;101734;-86
2023/05/18 03:12:18;;;;;;;18.58;15.88;;;;;;;11.07;55.57;101171.59;4944126;28;101581;-87
2023/05/18 03:14:45;;;;;;;21.60;16.25;;;;;;;11.15;55.94;101179.31;4941023;28;96800;-86
2023/05/18 03:17:11;;;;;;;19.75;16.70;;;;;;;11.18;56.02;101186.25;4936797;28;97069;-87
2023/05/18 03:19:36;;;;;;;19.95;16.48;;;;;;;11.17;55.95;101187.13;4945552;28;101811;-87
2023/05/18 03:22:03;;;;;;;17.92;16.00;;;;;;;10.99;56.02;101155.13;4952802;28;99997;-87
2023/05/18 03:24:39;;;;;;;20.17;16.00;;;;;;;11.18;55.80;101191.50;4959883;28;96908;-86
2023/05/18 03:27:07;;;;;;;18.52;15.95;;;;;;;11.12;55.80;101183.78;4946164;28;96848;-86
2023/05/18 03:29:35;;;;;;;17.95;15.95;;;;;;;11.12;55.63;101171.50;4943622;28;101103;-87
2023/05/18 03:32:02;;;;;;;23.17;16.63;;;;;;;11.21;55.67;101191.44;4944511;28;100653;-87
2023/05/18 03:34:28;;;;;;;19.00;15.70;;;;;;;11.06;55.41;101169.88;4973892;28;96864;-87
2023/05/18 03:36:54;;;;;;;17.75;15.85;;;;;;;11.22;55.84;101198.41;4955700;28;96950;-87
2023/05/18 03:39:20;;;;;;;20.55;16.08;;;;;;;11.22;55.37;101195.78;4967346;28;100433;-89
2023/05/18 03:41:47;;;;;;;20.63;16.50;;;;;;;11.27;55.67;101197.41;4950045;28;101212;-87
2023/05/18 03:44:13;;;;;;;28.67;16.20;;;;;;;11.26;55.78;101202.72;4937426;28;97245;-87
2023/05/18 03:46:39;;;;;;;19.92;15.05;;;;;;;11.16;56.22;101183.66;4941970;28;96981;-87
2023/05/18 03:49:06;;;;;;;16.77;14.95;;;;;;;11.31;55.84;101203.47;4947515;28;101880;-87
2023/05/18 03:51:36;;;;;;;21.10;16.55;;;;;;;11.34;56.09;101211.28;4962658;28;100699;-88
2023/05/18 03:54:02;;;;;;;18.20;16.33;;;;;;;11.32;55.79;101195.56;4963579;28;96669;-88
2023/05/18 03:56:30;;;;;;;18.77;14.65;;;;;;;11.33;55.90;101199.91;4959767;28;96906;-87
2023/05/18 03:58:57;;;;;;;23.73;16.73;;;;;;;11.45;55.77;101204.00;4965251;28;98153;-87
2023/05/18 04:01:23;;;;;;;21.45;15.85;;;;;;;11.54;55.39;101214.28;4935958;28;101636;-86
2023/05/18 04:03:49;;;;;;;22.42;16.75;;;;;;;11.57;55.32;101219.47;4953916;28;97224;-87
2023/05/18 04:06:15;;;;;;;21.98;17.20;;;;;;;11.53;55.29;101202.06;4960454;28;96912;-86
2023/05/18 04:08:42;;;;;;;26.50;17.33;;;;;;;11.61;55.28;101216.81;4946253;28;100721;-87
2023/05/18 04:11:08;;;;;;;21.35;15.35;;;;;;;11.56;55.42;101211.66;4942409;28;101443;-87
2023/05/18 04:13:36;;;;;;;21.33;16.40;;;;;;;11.62;54.62;101221.16;4958425;28;97226;-86
2023/05/18 04:16:03;;;;;;;18.48;16.58;;;;;;;11.62;54.78;101229.91;4957795;28;96987;-86
2023/05/18 04:18:29;;;;;;;21.85;16.25;;;;;;;11.57;54.33;101219.47;4958815;28;101908;-86
2023/05/18 04:20:55;;;;;;;21.17;14.55;;;;;;;11.64;54.41;101230.75;4958628;28;97628;-88
2023/05/18 04:23:21;;;;;;;19.85;16.92;;;;;;;11.72;54.21;101241.94;4955628;28;96767;-87
2023/05/18 04:25:48;;;;;;;18.15;16.10;;;;;;;11.60;53.89;101239.59;4975509;28;97784;-88
2023/05/18 04:28:15;;;;;;;21.95;15.70;;;;;;;11.72;54.19;101243.69;4943172;28;101209;-86
2023/05/18 04:30:40;;;;;;;18.60;16.63;;;;;;;11.68;53.69;101242.03;4951718;28;101535;-89
2023/05/18 04:33:06;;;;;;;20.88;16.88;;;;;;;11.70;53.68;101233.22;4945974;28;96767;-86
2023/05/18 04:35:31;;;;;;;20.48;16.75;;;;;;;11.55;53.92;101229.19;4968617;28;97326;-85
2023/05/18 04:37:57;;;;;;;18.20;16.35;;;;;;;11.62;54.10;101223.78;4958356;28;98497;-87
2023/05/18 04:40:24;;;;;;;19.50;15.82;;;;;;;11.72;53.75;101226.16;4939498;28;101085;-86
2023/05/18 04:42:50;;;;;;;19.80;17.50;;;;;;;11.67;53.76;101232.44;4937287;28;96871;-86
2023/05/18 04:45:19;;;;;;;18.02;15.85;;;;;;;11.77;53.08;101240.03;4956770;28;96937;-87
2023/05/18 04:47:46;;;;;;;19.52;16.50;;;;;;;11.91;53.17;101236.25;4952762;28;101311;-90
2023/05/18 04:50:13;;;;;;;18.25;16.27;;;;;;;11.85;52.87;101229.38;4975225;28;97897;-88
2023/05/18 04:52:46;;;;;;;22.48;15.90;;;;;;;11.91;52.59;101241.53;4958573;28;97103;-86
2023/05/18 04:55:18;;;;;;;17.52;15.02;;;;;;;11.92;52.88;101236.19;4959680;28;96890;-88
2023/05/18 04:57:44;;;;;;;19.25;16.67;;;;;;;12.01;52.94;101240.38;4951327;28;98161;-90
2023/05/18 05:00:11;;;;;;;22.63;17.00;;;;;;;11.82;52.69;101241.72;4958166;28;101532;-87
2023/05/18 05:02:37;;;;;;;20.65;15.43;;;;;;;11.94;52.65;101247.56;4942093;28;97137;-87
2023/05/18 05:05:03;;;;;;;20.73;16.38;;;;;;;11.88;52.57;101215.28;4958501;28;97570;-87
2023/05/18 05:07:29;;;;;;;23.45;15.98;;;;;;;12.00;52.50;101251.81;4974513;28;100379;-85
2023/05/18 05:09:54;;;;;;;19.00;16.40;;;;;;;11.83;52.75;101249.56;4956858;28;98391;-86
2023/05/18 05:12:20;;;;;;;24.02;15.88;;;;;;;11.30;52.85;101197.34;4936311;28;97183;-86
2023/05/18 05:14:46;;;;;;;21.70;16.92;;;;;;;11.75;52.42;101251.50;4942103;28;97053;-91
2023/05/18 05:17:12;;;;;;;23.35;16.40;;;;;;;12.08;52.27;101255.13;4936851;28;101424;-89
2023/05/18 05:19:38;;;;;;;22.70;16.50;;;;;;;12.00;52.37;101255.28;4941868;28;101986;-87
2023/05/18 05:22:03;;;;;;;18.15;15.98;;;;;;;12.08;52.37;101249.84;4940606;28;96898;-86
2023/05/18 05:24:29;;;;;;;18.33;16.45;;;;;;;12.18;52.13;101232.03;4955784;28;97347;-87
2023/05/18 05:26:55;;;;;;;24.33;16.75;;;;;;;12.37;51.50;101254.34;4940570;28;100515;-89
2023/05/18 05:29:20;;;;;;;21.65;17.15;;;;;;;12.55;51.45;101254.78;4957776;28;101169;-88
2023/05/18 05:31:46;;;;;;;19.80;16.77;;;;;;;12.58;51.67;101257.31;4957452;28;96806;-90
2023/05/18 05:34:12;;;;;;;21.13;16.02;;;;;;;12.71;51.00;101244.66;4940831;28;97263;-90
2023/05/18 05:36:38;;;;;;;18.75;16.50;;;;;;;12.66;50.79;101258.84;4940461;28;101717;-87
2023/05/18 05:39:04;;;;;;;20.52;15.82;;;;;;;12.78;50.41;101257.63;4957344;28;101647;-88
2023/05/18 05:41:30;;;;;;;18.80;16.33;;;;;;;12.88;49.85;101239.78;4959276;28;96980;-87
2023/05/18 05:43:56;;;;;;;21.40;15.23;;;;;;;13.04;49.43;101259.50;4956650;28;97593;-86
2023/05/18 05:46:23;;;;;;;20.55;14.00;;;;;;;12.86;48.77;101245.09;4954886;28;100293;-86
2023/05/18 05:48:49;;;;;;;18.98;15.88;;;;;;;12.46;49.15;101261.16;4957359;28;100993;-86
2023/05/18 05:51:15;;;;;;;18.83;16.00;;;;;;;12.61;48.84;101259.88;4956388;28;97337;-87
2023/05/18 05:53:42;;;;;;;15.50;14.05;;;;;;;13.14;48.11;101257.44;4958113;28;97281;-87
2023/05/18 05:56:08;;;;;;;20.27;14.63;;;;;;;13.23;48.57;101257.16;4957456;28;101202;-87
2023/05/18 05:58:37;;;;;;;20.13;16.60;;;;;;;13.12;47.94;101269.84;4945744;28;100212;-87
2023/05/18 06:01:03;;;;;;;16.27;14.80;;;;;;;13.13;47.74;101240.78;4946776;28;97222;-88
2023/05/18 06:03:30;;;;;;;21.58;15.30;;;;;;;13.34;47.56;101267.44;4956780;28;96881;-87
2023/05/18 06:05:58;;;;;;;17.38;14.88;;;;;;;12.81;47.41;101251.41;4953381;28;100721;-87
2023/05/18 06:08:24;;;;;;;22.33;14.90;;;;;;;13.55;46.69;101255.34;4940692;28;101592;-87
2023/05/18 06:10:50;;;;;;;18.35;15.40;;;;;;;13.89;46.20;101252.50;4952040;28;98058;-88
2023/05/18 06:13:17;;;;;;;18.25;16.35;;;;;;;13.52;46.54;101263.34;4938159;28;97344;-87
2023/05/18 06:15:48;;;;;;;;;;;;;;;13.35;46.43;101267.41;4942233;28;101148;-90
2023/05/18 06:18:14;;;;;;;16.42;14.82;;;;;;;13.72;46.37;101270.66;4973972;28;97916;-87
2023/05/18 06:20:40;;;;;;;16.25;14.52;;;;;;;13.84;45.94;101267.59;4949539;28;96782;-87
2023/05/18 06:23:05;;;;;;;15.50;14.13;;;;;;;13.55;46.34;101266.75;4974278;28;96885;-86
2023/05/18 06:25:57;;;;;;;15.95;14.30;;;;;;;13.51;46.06;101280.13;4946631;28;97079;-87
2023/05/18 06:28:45;;;;;;;17.40;14.77;;;;;;;13.36;46.31;101270.91;4964339;28;102023;-88
2023/05/18 06:31:35;;;;;;;17.33;14.98;;;;;;;13.54;46.09;101277.38;4964573;28;96656;-86
2023/05/18 06:34:07;;;;;;;18.52;15.02;;;;;;;14.30;45.40;101268.72;4966178;28;97276;-86
2023/05/18 06:36:34;;;;;;;21.48;15.15;;;;;;;14.00;45.02;101274.13;4958334;28;101593;-88
2023/05/18 06:38:59;;;;;;;21.65;14.25;;;;;;;13.30;45.89;101287.78;4942617;28;101104;-84
2023/05/18 06:41:25;;;;;;;16.45;15.05;;;;;;;13.30;45.62;101279.84;4960137;28;96927;-84
2023/05/18 06:43:51;;;;;;;19.25;14.77;;;;;;;13.55;45.35;101281.72;4940479;28;96849;-85
2023/05/18 06:46:28;;;;;;;18.98;15.00;;;;;;;13.76;44.83;101259.97;4956326;28;101541;-84
2023/05/18 06:48:58;;;;;;;19.70;14.60;;;;;;;14.06;44.83;101286.25;4949366;28;101232;-87
2023/05/18 06:51:23;;;;;;;16.35;14.65;;;;;;;13.18;45.55;101287.22;4960057;28;96949;-87
2023/05/18 06:53:49;;;;;;;17.25;14.63;;;;;;;13.70;45.19;101288.28;4959712;28;96964;-87
2023/05/18 06:56:15;;;;;;;15.68;13.90;;;;;;;13.91;44.24;101274.44;4970654;28;97905;-84
2023/05/18 06:58:42;;;;;;;17.90;14.40;;;;;;;14.02;44.17;101282.88;4962956;28;101798;-86
2023/05/18 07:01:09;;;;;;;17.45;14.32;;;;;;;13.82;43.38;101285.28;4950259;28;96910;-87
2023/05/18 07:03:36;;;;;;;17.35;14.15;;;;;;;14.52;44.17;101289.16;4944005;28;96984;-83
2023/05/18 07:06:04;;;;;;;19.50;14.68;;;;;;;14.93;43.57;101280.59;4965977;28;97388;-83
2023/05/18 07:08:30;;;;;;;15.85;13.85;;;;;;;14.03;43.71;101289.84;4954675;28;101058;-84
2023/05/18 07:10:57;;;;;;;19.05;14.60;;;;;;;14.18;44.06;101292.91;4965107;28;97439;-83
2023/05/18 07:13:23;;;;;;;16.58;14.75;;;;;;;14.18;43.73;101285.84;4950748;28;97035;-83
2023/05/18 07:15:48;;;;;;;16.00;14.70;;;;;;;14.36;42.72;101275.56;4969687;28;97388;-83
2023/05/18 07:18:14;;;;;;;17.52;15.13;;;;;;;15.51;41.77;101276.66;4958665;28;98070;-84
2023/05/18 07:20:40;;;;;;;17.90;13.68;;;;;;;15.42;41.99;101277.88;4975408;28;97234;-83
2023/05/18 07:23:06;;;;;;;21.75;14.18;;;;;;;14.65;41.81;101266.66;4940197;28;97179;-83
2023/05/18 07:25:31;;;;;;;16.98;15.02;;;;;;;15.91;40.82;101277.69;4942669;28;101893;-83
2023/05/18 07:27:57;;;;;;;15.70;14.20;;;;;;;14.99;40.77;101278.63;4975095;28;97961;-83
2023/05/18 07:30:23;;;;;;;16.45;14.35;;;;;;;16.40;40.21;101291.53;4941535;28;96871;-83
2023/05/18 07:32:50;;;;;;;14.93;13.38;;;;;;;16.03;39.64;101293.97;4955147;28;97063;-84
2023/05/18 07:35:18;;;;;;;14.68;13.50;;;;;;;16.23;39.93;101269.28;4965758;28;101989;-83
2023/05/18 07:37:43;;;;;;;21.50;14.05;;;;;;;15.57;40.06;101289.63;4958925;28;101689;-84
2023/05/18 07:40:10;;;;;;;15.98;13.40;;;;;;;17.10;38.68;101276.97;4954092;28;97339;-82
2023/05/18 07:42:37;;;;;;;16.17;14.13;;;;;;;16.48;38.84;101268.22;4952943;28;96885;-83
2023/05/18 07:45:03;;;;;;;17.52;13.23;;;;;;;17.38;37.86;101290.66;4942217;28;101639;-83
2023/05/18 07:47:29;;;;;;;16.85;14.00;;;;;;;18.38;37.12;101284.94;4950598;28;101295;-85
2023/05/18 07:49:54;;;;;;;16.05;14.18;;;;;;;17.81;37.32;101280.69;4956725;28;97091;-86
2023/05/18 07:52:20;;;;;;;15.40;13.85;;;;;;;18.94;35.63;101259.88;4943102;28;96919;-84
2023/05/18 07:54:46;;;;;;;15.05;13.52;;;;;;;18.16;36.42;101286.03;4929956;28;101487;-84
2023/05/18 07:57:11;;;;;;;17.00;15.32;;;;;;;20.24;34.06;101260.44;4954815;28;101733;-85
2023/05/18 07:59:37;;;;;;;15.30;13.45;;;;;;;23.66;30.06;101260.91;4954021;28;97210;-85
2023/05/18 08:02:04;;;;;;;14.85;13.45;;;;;;;25.63;27.98;101244.56;4953708;28;97321;-84
2023/05/18 08:04:29;;;;;;;17.10;15.48;;;;;;;25.32;27.35;101258.81;4974796;28;97654;-85
2023/05/18 08:06:59;;;;;;;16.90;14.63;;;;;;;25.01;27.88;101256.72;4974514;28;97647;-84
2023/05/18 08:09:28;;;;;;;16.27;14.73;;;;;;;23.42;29.20;101268.94;4974546;28;96764;-90
2023/05/18 08:11:54;;;;;;;15.50;14.13;;;;;;;24.28;28.22;101259.81;4958864;28;97403;-87
2023/05/18 08:14:20;;;;;;;15.82;14.25;;;;;;;24.59;27.34;101251.13;4958353;28;98066;-86
2023/05/18 08:16:45;;;;;;;16.98;15.32;;;;;;;25.03;27.58;101244.03;4953793;28;101928;-84
2023/05/18 08:19:11;;;;;;;16.33;14.70;;;;;;;25.95;26.33;101255.34;4940151;28;97100;-84
2023/05/18 08:21:37;;;;;;;18.05;15.10;;;;;;;25.94;24.50;101252.78;4954972;28;96864;-84
2023/05/18 08:24:03;;;;;;;16.35;14.77;;;;;;;31.92;19.74;101240.81;4940974;28;101770;-83
2023/05/18 08:26:29;;;;;;;16.17;14.98;;;;;;;29.94;20.94;101214.81;4970293;28;98082;-86
2023/05/18 08:28:54;;;;;;;17.33;15.57;;;;;;;30.88;20.50;101236.59;4937989;28;97090;-85
2023/05/18 08:31:20;;;;;;;15.73;14.50;;;;;;;31.40;20.51;101232.06;4940256;28;96906;-83
2023/05/18 08:33:47;;;;;;;16.83;15.20;;;;;;;31.86;20.38;101229.75;4959584;28;97112;-83
2023/05/18 08:36:13;;;;;;;17.60;16.05;;;;;;;34.55;18.42;101227.56;4957455;28;98334;-83
2023/05/18 08:38:38;;;;;;;16.80;15.18;;;;;;;36.63;16.59;101224.91;4957141;28;96859;-84
2023/05/18 08:41:22;;;;;;;16.92;15.57;;;;;;;34.45;17.46;101233.25;4932829;28;97464;-76
2023/05/18 08:44:00;;;;;;;18.02;16.52;;;;;;;40.26;14.10;101222.81;4972365;28;97480;-76
2023/05/18 08:46:41;;;;;;;17.33;15.23;;;;;;;39.54;14.45;101208.56;4955170;28;101370;-78
2023/05/18 08:49:09;;;;;;;16.35;14.77;;;;;;;37.44;16.01;101228.78;4971106;28;97403;-77
2023/05/18 08:51:37;;;;;;;16.88;15.38;;;;;;;35.48;16.09;101222.44;4955207;28;97929;-78
2023/05/18 08:54:07;;;;;;;16.15;15.02;;;;;;;33.85;17.96;101227.84;4952798;28;97574;-78
2023/05/18 08:56:33;;;;;;;16.75;15.43;;;;;;;31.01;19.75;101221.72;4933684;28;101340;-77
2023/05/18 08:58:59;;;;;;;17.02;15.63;;;;;;;30.10;20.93;101223.03;4954603;28;97867;-78
2023/05/18 09:01:27;;;;;;;19.60;16.23;;;;;;;30.54;21.37;101214.88;4970046;28;97887;-79
2023/05/18 09:03:55;;;;;;;17.33;15.87;;;;;;;30.48;21.64;101231.78;4930834;28;101449;-81
2023/05/18 09:06:23;;;;;;;18.25;16.70;;;;;;;30.01;21.55;101234.81;4949003;28;99756;-79
2023/05/18 09:08:51;;;;;;;18.30;16.65;;;;;;;27.14;23.07;101227.13;4933332;28;97416;-79
2023/05/18 09:11:17;;;;;;;17.17;15.88;;;;;;;27.35;24.09;101220.81;4963036;28;96971;-79
2023/05/18 09:13:43;;;;;;;17.25;15.88;;;;;;;27.20;23.87;101220.31;4945688;28;101575;-79
2023/05/18 09:16:09;;;;;;;17.77;16.30;;;;;;;26.78;24.97;101209.69;4980334;28;97304;-78
2023/05/18 09:18:34;;;;;;;17.08;15.85;;;;;;;26.79;24.93;101233.81;4955954;28;96800;-79
2023/05/18 09:21:00;;;;;;;17.10;15.82;;;;;;;26.92;25.16;101209.31;4938657;28;97859;-78
2023/05/18 09:23:26;;;;;;;18.15;16.55;;;;;;;25.59;27.28;101245.78;4950611;28;101323;-76
2023/05/18 09:25:51;;;;;;;16.55;15.30;;;;;;;26.39;27.21;101245.31;4956555;28;97384;-76
2023/05/18 09:28:37;;;;;;;17.98;16.35;;;;;;;26.04;27.06;101228.66;4948202;28;98123;-77
2023/05/18 09:31:03;;;;;;;17.17;15.40;;;;;;;25.34;26.85;101238.03;4981203;28;98106;-77
2023/05/18 09:33:35;;;;;;;18.13;16.30;;;;;;;25.66;27.13;101233.56;4969640;28;97986;-76
2023/05/18 09:36:03;;;;;;;17.27;15.77;;;;;;;25.13;27.35;101227.19;4953562;28;101781;-76
2023/05/18 09:38:29;;;;;;;16.45;14.93;;;;;;;23.92;27.95;101241.06;4951001;28;97259;-76
2023/05/18 09:40:55;;;;;;;17.65;16.17;;;;;;;23.98;28.45;101244.25;4950142;28;97450;-76
2023/05/18 09:43:20;;;;;;;17.67;15.25;;;;;;;22.68;28.87;101239.34;4987270;28;98473;-76
2023/05/18 09:45:47;;;;;;;17.05;15.52;;;;;;;22.21;30.23;101253.34;4948088;28;100613;-76
2023/05/18 09:48:14;;;;;;;15.70;14.48;;;;;;;23.15;29.58;101215.53;4949950;28;97634;-75
2023/05/18 09:50:41;;;;;;;17.17;15.38;;;;;;;23.53;28.88;101234.13;4953140;28;96866;-75
2023/05/18 09:53:08;;;;;;;20.52;18.05;;;;;;;23.87;29.92;101237.88;4948753;28;98277;-80
2023/05/18 09:55:44;;;;;;;17.67;16.15;;;;;;;23.80;29.83;101227.75;4943645;28;101344;-78
2023/05/18 09:58:09;;;;;;;16.52;14.80;;;;;;;23.87;29.61;101229.81;4949134;28;97880;-78
2023/05/18 10:00:43;;;;;;;16.65;15.02;;;;;;;23.33;29.30;101232.06;4954204;28;98181;-79
2023/05/18 10:03:22;;;;;;;16.83;15.13;;;;;;;23.38;30.31;101227.22;4956895;28;100749;-79
2023/05/18 10:05:48;;;;;;;15.90;14.68;;;;;;;23.28;30.27;101227.91;4929569;28;101292;-78
2023/05/18 10:08:15;;;;;;;19.30;15.98;;;;;;;23.39;30.57;101223.59;4964718;28;97447;-79
2023/05/18 10:10:45;;;;;;;15.80;14.50;;;;;;;22.59;30.45;101232.81;4937140;28;97471;-76
2023/05/18 10:13:18;;;;;;;15.97;14.43;;;;;;;20.47;31.95;101239.53;4951531;28;101621;-78
2023/05/18 10:15:57;;;;;;;15.77;14.43;;;;;;;21.12;31.70;101233.75;4956526;28;98388;-78
2023/05/18 10:18:34;;;;;;;14.38;13.13;;;;;;;20.25;32.84;101242.66;4951231;28;97042;-78
2023/05/18 10:21:01;;;;;;;15.82;14.52;;;;;;;21.15;31.91;101233.56;4953780;28;97294;-78
2023/05/18 10:23:30;;;;;;;15.68;14.40;;;;;;;22.04;31.82;101235.75;4960246;28;101253;-78
2023/05/18 10:25:56;;;;;;;14.82;13.68;;;;;;;21.11;31.75;101234.69;4952747;28;97328;-78
2023/05/18 10:28:26;;;;;;;15.50;14.13;;;;;;;21.15;31.45;101229.09;4970769;28;97513;-78
2023/05/18 10:30:56;;;;;;;15.57;14.07;;;;;;;21.74;32.42;101219.97;4954928;28;97859;-78
2023/05/18 10:33:24;;;;;;;17.20;13.47;;;;;;;21.80;31.87;101227.56;4954302;28;101666;-79
2023/05/18 10:35:50;;;;;;;15.70;14.45;;;;;;;21.57;31.86;101229.09;4938162;28;101122;-77
2023/05/18 10:38:22;;;;;;;16.63;15.20;;;;;;;21.64;32.04;101231.28;4955945;28;98229;-75
2023/05/18 10:40:49;;;;;;;14.88;13.82;;;;;;;21.28;32.70;101225.63;4948290;28;98122;-75
2023/05/18 10:43:19;;;;;;;15.30;14.10;;;;;;;19.23;32.89;101231.66;4948921;28;100997;-74
2023/05/18 10:45:47;;;;;;;15.13;13.83;;;;;;;19.81;33.33;101214.16;4955110;28;98059;-74
2023/05/18 10:48:14;;;;;;;14.20;12.93;;;;;;;18.80;34.08;101212.72;4951556;28;97498;-73
2023/05/18 10:50:40;;;;;;;14.65;13.65;;;;;;;20.40;32.84;101219.56;4937606;28;97206;-75
2023/05/18 10:53:05;;;;;;;14.35;13.48;;;;;;;20.13;33.36;101215.78;4982508;28;98003;-75
2023/05/18 10:55:31;;;;;;;14.23;13.23;;;;;;;20.25;33.46;101210.69;4960089;28;101035;-75
2023/05/18 10:58:09;;;;;;;15.93;14.63;;;;;;;19.12;34.74;101200.31;4947622;28;97353;-76
2023/05/18 11:00:35;;;;;;;16.85;15.32;;;;;;;19.95;34.55;101218.69;4960907;28;96945;-75
2023/05/18 11:03:01;;;;;;;14.32;13.43;;;;;;;19.79;33.78;101213.41;4926154;28;101505;-77
2023/05/18 11:05:27;;;;;;;15.18;14.02;;;;;;;19.80;34.34;101217.78;4959460;28;97502;-75
2023/05/18 11:08:00;;;;;;;15.82;14.63;;;;;;;19.45;34.49;101194.88;4945673;28;97310;-75
2023/05/18 11:10:33;;;;;;;15.57;14.20;;;;;;;19.74;34.01;101207.47;4928243;28;96911;-75